sensor_id;sensor_type;location;lat;lon;timestamp;temperature;humidity
3818;DHT22;1924;48.078;11.516;2023-07-31T00:01:16;18.00;99.80
3818;DHT22;1924;48.078;11.516;2023-07-31T00:03:43;18.00;99.40
3818;DHT22;1924;48.078;11.516;2023-07-31T00:06:10;18.00;99.60
3818;DHT22;1924;48.078;11.516;2023-07-31T00:08:37;17.90;99.70
3818;DHT22;1924;48.078;11.516;2023-07-31T00:11:03;17.90;99.60
3818;DHT22;1924;48.078;11.516;2023-07-31T00:13:31;17.80;99.50
3818;DHT22;1924;48.078;11.516;2023-07-31T00:15:59;17.80;99.50
3818;DHT22;1924;48.078;11.516;2023-07-31T00:18:26;17.80;99.50
3818;DHT22;1924;48.078;11.516;2023-07-31T00:20:52;17.70;99.60
3818;DHT22;1924;48.078;11.516;2023-07-31T00:23:19;17.60;99.50
3818;DHT22;1924;48.078;11.516;2023-07-31T00:25:48;17.50;99.70
3818;DHT22;1924;48.078;11.516;2023-07-31T00:28:15;17.50;99.90
3818;DHT22;1924;48.078;11.516;2023-07-31T00:30:43;17.40;99.90
3818;DHT22;1924;48.078;11.516;2023-07-31T00:33:09;17.50;99.90
3818;DHT22;1924;48.078;11.516;2023-07-31T00:35:36;17.40;99.90
3818;DHT22;1924;48.078;11.516;2023-07-31T00:38:03;17.30;99.90
3818;DHT22;1924;48.078;11.516;2023-07-31T00:40:33;17.30;99.90
3818;DHT22;1924;48.078;11.516;2023-07-31T04:00:41;16.70;99.90
3818;DHT22;1924;48.078;11.516;2023-07-31T04:03:08;16.70;99.90
3818;DHT22;1924;48.078;11.516;2023-07-31T04:05:38;16.70;99.90
3818;DHT22;1924;48.078;11.516;2023-07-31T04:08:05;16.70;99.90
3818;DHT22;1924;48.078;11.516;2023-07-31T04:10:32;16.70;99.90
3818;DHT22;1924;48.078;11.516;2023-07-31T04:12:59;16.70;99.90
3818;DHT22;1924;48.078;11.516;2023-07-31T04:15:25;16.80;99.90
3818;DHT22;1924;48.078;11.516;2023-07-31T04:17:55;16.80;99.90
3818;DHT22;1924;48.078;11.516;2023-07-31T04:20:21;16.80;99.90
3818;DHT22;1924;48.078;11.516;2023-07-31T04:22:48;16.90;99.90
3818;DHT22;1924;48.078;11.516;2023-07-31T04:25:15;16.90;99.90
3818;DHT22;1924;48.078;11.516;2023-07-31T04:27:42;16.90;99.90
3818;DHT22;1924;48.078;11.516;2023-07-31T04:30:09;17.00;99.90
3818;DHT22;1924;48.078;11.516;2023-07-31T04:32:36;17.00;99.90
3818;DHT22;1924;48.078;11.516;2023-07-31T04:35:04;17.00;99.90
3818;DHT22;1924;48.078;11.516;2023-07-31T04:37:31;17.00;99.90
3818;DHT22;1924;48.078;11.516;2023-07-31T04:39:58;17.10;99.90
3818;DHT22;1924;48.078;11.516;2023-07-31T04:42:25;17.10;99.90
3818;DHT22;1924;48.078;11.516;2023-07-31T04:44:51;17.10;99.90
3818;DHT22;1924;48.078;11.516;2023-07-31T04:47:19;17.10;99.90
3818;DHT22;1924;48.078;11.516;2023-07-31T04:49:45;17.20;99.90
3818;DHT22;1924;48.078;11.516;2023-07-31T04:52:13;17.30;99.90
3818;DHT22;1924;48.078;11.516;2023-07-31T04:54:40;17.40;99.90
3818;DHT22;1924;48.078;11.516;2023-07-31T04:57:07;17.50;99.90
3818;DHT22;1924;48.078;11.516;2023-07-31T04:59:34;17.70;99.90
3818;DHT22;1924;48.078;11.516;2023-07-31T05:02:00;17.90;99.90
3818;DHT22;1924;48.078;11.516;2023-07-31T05:04:27;18.10;99.90
3818;DHT22;1924;48.078;11.516;2023-07-31T05:06:54;18.20;99.90
3818;DHT22;1924;48.078;11.516;2023-07-31T05:09:25;18.30;99.90
3818;DHT22;1924;48.078;11.516;2023-07-31T05:11:52;18.50;99.90
3818;DHT22;1924;48.078;11.516;2023-07-31T05:14:19;18.70;99.90
3818;DHT22;1924;48.078;11.516;2023-07-31T05:16:45;18.90;99.90
3818;DHT22;1924;48.078;11.516;2023-07-31T05:19:12;19.10;99.90
3818;DHT22;1924;48.078;11.516;2023-07-31T05:21:39;19.20;99.90
3818;DHT22;1924;48.078;11.516;2023-07-31T05:24:06;19.40;99.90
3818;DHT22;1924;48.078;11.516;2023-07-31T05:26:34;19.40;99.90
3818;DHT22;1924;48.078;11.516;2023-07-31T05:29:01;19.40;99.90
3818;DHT22;1924;48.078;11.516;2023-07-31T05:31:28;19.40;99.90
3818;DHT22;1924;48.078;11.516;2023-07-31T05:33:55;19.50;99.90
3818;DHT22;1924;48.078;11.516;2023-07-31T05:36:21;19.60;99.90
3818;DHT22;1924;48.078;11.516;2023-07-31T05:38:48;19.80;99.90
3818;DHT22;1924;48.078;11.516;2023-07-31T05:41:15;19.80;99.90
3818;DHT22;1924;48.078;11.516;2023-07-31T05:43:43;19.90;99.90
3818;DHT22;1924;48.078;11.516;2023-07-31T05:46:10;20.00;99.90
3818;DHT22;1924;48.078;11.516;2023-07-31T05:48:37;20.00;99.90
3818;DHT22;1924;48.078;11.516;2023-07-31T05:51:04;19.90;99.90
3818;DHT22;1924;48.078;11.516;2023-07-31T05:53:31;19.80;99.90
3818;DHT22;1924;48.078;11.516;2023-07-31T05:55:57;19.80;99.90
3818;DHT22;1924;48.078;11.516;2023-07-31T05:58:24;19.80;99.90
3818;DHT22;1924;48.078;11.516;2023-07-31T06:00:52;19.60;99.90
3818;DHT22;1924;48.078;11.516;2023-07-31T06:03:19;19.60;99.90
3818;DHT22;1924;48.078;11.516;2023-07-31T06:05:45;19.60;99.90
3818;DHT22;1924;48.078;11.516;2023-07-31T06:08:12;19.50;99.90
3818;DHT22;1924;48.078;11.516;2023-07-31T06:10:39;19.60;99.90
3818;DHT22;1924;48.078;11.516;2023-07-31T06:13:06;19.60;99.90
3818;DHT22;1924;48.078;11.516;2023-07-31T06:15:33;19.80;99.90
3818;DHT22;1924;48.078;11.516;2023-07-31T06:18:02;19.90;99.90
3818;DHT22;1924;48.078;11.516;2023-07-31T06:20:30;20.00;99.90
3818;DHT22;1924;48.078;11.516;2023-07-31T06:22:56;20.00;99.90
3818;DHT22;1924;48.078;11.516;2023-07-31T06:25:23;20.10;99.90
3818;DHT22;1924;48.078;11.516;2023-07-31T06:27:50;20.10;99.80
3818;DHT22;1924;48.078;11.516;2023-07-31T06:30:16;19.90;99.90
3818;DHT22;1924;48.078;11.516;2023-07-31T06:32:43;19.80;99.90
3818;DHT22;1924;48.078;11.516;2023-07-31T06:35:12;19.60;99.90
3818;DHT22;1924;48.078;11.516;2023-07-31T06:37:39;19.50;99.90
3818;DHT22;1924;48.078;11.516;2023-07-31T06:40:09;19.40;99.90
3818;DHT22;1924;48.078;11.516;2023-07-31T06:42:36;19.30;99.90
3818;DHT22;1924;48.078;11.516;2023-07-31T06:45:03;19.30;99.90
3818;DHT22;1924;48.078;11.516;2023-07-31T06:47:31;19.20;99.90
3818;DHT22;1924;48.078;11.516;2023-07-31T06:49:58;19.20;99.90
3818;DHT22;1924;48.078;11.516;2023-07-31T06:52:26;19.20;99.90
3818;DHT22;1924;48.078;11.516;2023-07-31T06:55:03;19.30;99.90
3818;DHT22;1924;48.078;11.516;2023-07-31T06:57:30;19.30;99.90
3818;DHT22;1924;48.078;11.516;2023-07-31T06:59:59;19.30;99.90
3818;DHT22;1924;48.078;11.516;2023-07-31T07:02:26;19.40;99.90
3818;DHT22;1924;48.078;11.516;2023-07-31T07:04:52;19.40;99.90
3818;DHT22;1924;48.078;11.516;2023-07-31T07:07:19;19.50;99.90
3818;DHT22;1924;48.078;11.516;2023-07-31T07:09:47;19.50;99.90
3818;DHT22;1924;48.078;11.516;2023-07-31T07:12:15;19.50;99.90
3818;DHT22;1924;48.078;11.516;2023-07-31T07:14:42;19.50;99.90
3818;DHT22;1924;48.078;11.516;2023-07-31T07:17:11;19.50;99.90
3818;DHT22;1924;48.078;11.516;2023-07-31T07:19:40;19.60;99.90
3818;DHT22;1924;48.078;11.516;2023-07-31T07:22:07;19.80;99.90
3818;DHT22;1924;48.078;11.516;2023-07-31T07:24:35;20.00;99.90
3818;DHT22;1924;48.078;11.516;2023-07-31T07:27:03;20.30;99.90
3818;DHT22;1924;48.078;11.516;2023-07-31T07:29:30;20.50;99.90
3818;DHT22;1924;48.078;11.516;2023-07-31T07:31:56;20.70;99.50
3818;DHT22;1924;48.078;11.516;2023-07-31T07:34:27;20.90;99.50
3818;DHT22;1924;48.078;11.516;2023-07-31T07:36:54;21.00;99.80
3818;DHT22;1924;48.078;11.516;2023-07-31T07:39:21;21.00;98.90
3818;DHT22;1924;48.078;11.516;2023-07-31T07:41:48;21.10;98.30
3818;DHT22;1924;48.078;11.516;2023-07-31T07:44:16;21.10;98.50
3818;DHT22;1924;48.078;11.516;2023-07-31T07:46:43;21.00;97.40
3818;DHT22;1924;48.078;11.516;2023-07-31T07:49:10;21.00;97.90
3818;DHT22;1924;48.078;11.516;2023-07-31T07:51:36;20.90;98.90
3818;DHT22;1924;48.078;11.516;2023-07-31T07:54:03;20.90;97.30
3818;DHT22;1924;48.078;11.516;2023-07-31T07:56:30;20.90;96.90
3818;DHT22;1924;48.078;11.516;2023-07-31T07:58:57;20.80;98.30
3818;DHT22;1924;48.078;11.516;2023-07-31T08:01:25;20.80;97.00
3818;DHT22;1924;48.078;11.516;2023-07-31T08:03:51;20.80;98.00
3818;DHT22;1924;48.078;11.516;2023-07-31T08:06:25;20.90;98.20
3818;DHT22;1924;48.078;11.516;2023-07-31T08:08:52;21.00;97.20
3818;DHT22;1924;48.078;11.516;2023-07-31T08:11:18;21.00;97.40
3818;DHT22;1924;48.078;11.516;2023-07-31T08:13:46;21.10;97.20
3818;DHT22;1924;48.078;11.516;2023-07-31T08:16:12;21.20;98.00
3818;DHT22;1924;48.078;11.516;2023-07-31T08:18:40;21.30;97.10
3818;DHT22;1924;48.078;11.516;2023-07-31T08:21:08;21.40;97.10
3818;DHT22;1924;48.078;11.516;2023-07-31T08:23:34;21.50;96.70
3818;DHT22;1924;48.078;11.516;2023-07-31T08:26:01;21.40;96.50
3818;DHT22;1924;48.078;11.516;2023-07-31T08:28:28;21.30;96.10
3818;DHT22;1924;48.078;11.516;2023-07-31T08:30:55;21.30;97.40
3818;DHT22;1924;48.078;11.516;2023-07-31T08:33:21;21.30;96.90
3818;DHT22;1924;48.078;11.516;2023-07-31T08:35:51;21.20;96.20
3818;DHT22;1924;48.078;11.516;2023-07-31T08:38:17;21.20;96.60
3818;DHT22;1924;48.078;11.516;2023-07-31T08:40:45;21.30;96.40
3818;DHT22;1924;48.078;11.516;2023-07-31T08:43:11;21.30;96.20
3818;DHT22;1924;48.078;11.516;2023-07-31T08:45:39;21.20;95.30
3818;DHT22;1924;48.078;11.516;2023-07-31T08:48:08;21.00;96.00
3818;DHT22;1924;48.078;11.516;2023-07-31T08:50:36;21.00;96.10
3818;DHT22;1924;48.078;11.516;2023-07-31T08:53:05;20.90;96.70
3818;DHT22;1924;48.078;11.516;2023-07-31T08:55:32;20.90;97.10
3818;DHT22;1924;48.078;11.516;2023-07-31T08:58:01;20.80;97.00
3818;DHT22;1924;48.078;11.516;2023-07-31T09:00:32;20.70;97.00
3818;DHT22;1924;48.078;11.516;2023-07-31T09:03:02;20.60;96.90
3818;DHT22;1924;48.078;11.516;2023-07-31T09:05:29;20.50;96.00
3818;DHT22;1924;48.078;11.516;2023-07-31T09:07:57;20.60;97.70
3818;DHT22;1924;48.078;11.516;2023-07-31T09:10:25;20.70;96.70
3818;DHT22;1924;48.078;11.516;2023-07-31T09:12:52;20.70;96.70
3818;DHT22;1924;48.078;11.516;2023-07-31T09:15:19;20.80;96.70
3818;DHT22;1924;48.078;11.516;2023-07-31T09:17:46;20.90;97.00
3818;DHT22;1924;48.078;11.516;2023-07-31T09:20:14;21.20;97.20
3818;DHT22;1924;48.078;11.516;2023-07-31T09:22:42;21.30;97.20
3818;DHT22;1924;48.078;11.516;2023-07-31T09:25:16;21.40;97.10
3818;DHT22;1924;48.078;11.516;2023-07-31T09:27:48;21.50;96.50
3818;DHT22;1924;48.078;11.516;2023-07-31T09:30:15;21.60;96.30
3818;DHT22;1924;48.078;11.516;2023-07-31T09:32:43;21.60;95.00
3818;DHT22;1924;48.078;11.516;2023-07-31T09:35:20;21.80;94.10
3818;DHT22;1924;48.078;11.516;2023-07-31T09:37:51;21.80;94.30
3818;DHT22;1924;48.078;11.516;2023-07-31T09:40:29;21.80;94.70
3818;DHT22;1924;48.078;11.516;2023-07-31T09:42:58;22.00;95.20
3818;DHT22;1924;48.078;11.516;2023-07-31T09:45:26;21.90;94.70
3818;DHT22;1924;48.078;11.516;2023-07-31T09:47:53;21.80;94.10
3818;DHT22;1924;48.078;11.516;2023-07-31T09:50:22;21.60;94.00
3818;DHT22;1924;48.078;11.516;2023-07-31T09:52:49;21.70;95.30
3818;DHT22;1924;48.078;11.516;2023-07-31T09:55:19;21.90;95.20
3818;DHT22;1924;48.078;11.516;2023-07-31T09:57:47;22.00;94.50
3818;DHT22;1924;48.078;11.516;2023-07-31T10:00:17;22.20;95.20
3818;DHT22;1924;48.078;11.516;2023-07-31T10:02:46;22.40;93.30
3818;DHT22;1924;48.078;11.516;2023-07-31T10:05:14;22.50;93.70
3818;DHT22;1924;48.078;11.516;2023-07-31T10:07:43;22.60;94.50
3818;DHT22;1924;48.078;11.516;2023-07-31T10:10:12;22.80;94.00
3818;DHT22;1924;48.078;11.516;2023-07-31T10:12:42;22.80;93.10
3818;DHT22;1924;48.078;11.516;2023-07-31T10:15:10;23.00;94.10
3818;DHT22;1924;48.078;11.516;2023-07-31T10:17:39;23.20;93.00
3818;DHT22;1924;48.078;11.516;2023-07-31T10:20:07;23.10;90.40
3818;DHT22;1924;48.078;11.516;2023-07-31T10:22:34;23.10;93.20
3818;DHT22;1924;48.078;11.516;2023-07-31T10:25:01;23.10;91.70
3818;DHT22;1924;48.078;11.516;2023-07-31T10:27:28;23.20;92.40
3818;DHT22;1924;48.078;11.516;2023-07-31T10:29:57;23.20;91.00
3818;DHT22;1924;48.078;11.516;2023-07-31T10:32:25;23.30;91.30
3818;DHT22;1924;48.078;11.516;2023-07-31T10:34:53;23.50;90.50
3818;DHT22;1924;48.078;11.516;2023-07-31T10:37:25;23.50;91.00
3818;DHT22;1924;48.078;11.516;2023-07-31T10:39:57;23.60;90.10
3818;DHT22;1924;48.078;11.516;2023-07-31T10:42:31;23.60;90.90
3818;DHT22;1924;48.078;11.516;2023-07-31T10:45:01;23.60;92.10
3818;DHT22;1924;48.078;11.516;2023-07-31T10:47:29;23.50;92.20
3818;DHT22;1924;48.078;11.516;2023-07-31T10:50:18;23.50;91.20
3818;DHT22;1924;48.078;11.516;2023-07-31T10:52:47;23.30;89.50
3818;DHT22;1924;48.078;11.516;2023-07-31T10:55:26;23.30;91.10
3818;DHT22;1924;48.078;11.516;2023-07-31T10:57:53;23.10;89.60
3818;DHT22;1924;48.078;11.516;2023-07-31T11:00:22;23.00;90.10
3818;DHT22;1924;48.078;11.516;2023-07-31T11:03:03;23.00;90.60
3818;DHT22;1924;48.078;11.516;2023-07-31T11:06:01;23.00;91.20
3818;DHT22;1924;48.078;11.516;2023-07-31T11:08:30;23.10;90.90
3818;DHT22;1924;48.078;11.516;2023-07-31T11:11:07;23.00;91.80
3818;DHT22;1924;48.078;11.516;2023-07-31T11:13:41;22.90;90.10
3818;DHT22;1924;48.078;11.516;2023-07-31T11:21:12;22.70;90.00
3818;DHT22;1924;48.078;11.516;2023-07-31T11:23:39;22.90;90.70
3818;DHT22;1924;48.078;11.516;2023-07-31T11:26:07;23.20;90.90
3818;DHT22;1924;48.078;11.516;2023-07-31T11:28:35;23.70;91.40
3818;DHT22;1924;48.078;11.516;2023-07-31T11:31:02;24.30;90.30
3818;DHT22;1924;48.078;11.516;2023-07-31T11:33:29;24.50;87.90
3818;DHT22;1924;48.078;11.516;2023-07-31T11:35:55;24.70;87.00
3818;DHT22;1924;48.078;11.516;2023-07-31T11:38:25;24.90;86.30
3818;DHT22;1924;48.078;11.516;2023-07-31T11:40:52;25.00;88.60
3818;DHT22;1924;48.078;11.516;2023-07-31T11:43:20;25.00;88.70
3818;DHT22;1924;48.078;11.516;2023-07-31T11:45:47;24.60;84.50
3818;DHT22;1924;48.078;11.516;2023-07-31T11:48:22;24.40;84.80
3818;DHT22;1924;48.078;11.516;2023-07-31T11:50:50;24.60;89.60
3818;DHT22;1924;48.078;11.516;2023-07-31T11:53:19;24.60;80.80
3818;DHT22;1924;48.078;11.516;2023-07-31T11:55:48;24.60;84.80
3818;DHT22;1924;48.078;11.516;2023-07-31T11:58:16;24.90;83.10
3818;DHT22;1924;48.078;11.516;2023-07-31T12:00:43;25.20;84.20
3818;DHT22;1924;48.078;11.516;2023-07-31T12:03:10;25.40;82.00
3818;DHT22;1924;48.078;11.516;2023-07-31T12:05:37;25.50;84.80
3818;DHT22;1924;48.078;11.516;2023-07-31T12:08:09;25.70;83.50
3818;DHT22;1924;48.078;11.516;2023-07-31T12:10:37;25.60;83.40
3818;DHT22;1924;48.078;11.516;2023-07-31T12:13:08;25.70;83.80
3818;DHT22;1924;48.078;11.516;2023-07-31T12:15:38;25.70;82.20
3818;DHT22;1924;48.078;11.516;2023-07-31T12:18:06;25.80;81.60
3818;DHT22;1924;48.078;11.516;2023-07-31T12:20:33;25.70;83.40
3818;DHT22;1924;48.078;11.516;2023-07-31T12:23:01;25.40;84.50
3818;DHT22;1924;48.078;11.516;2023-07-31T12:25:32;25.20;80.30
3818;DHT22;1924;48.078;11.516;2023-07-31T12:28:04;24.90;80.80
3818;DHT22;1924;48.078;11.516;2023-07-31T12:30:34;24.80;81.20
3818;DHT22;1924;48.078;11.516;2023-07-31T12:33:04;25.10;81.70
3818;DHT22;1924;48.078;11.516;2023-07-31T12:35:36;25.40;83.90
3818;DHT22;1924;48.078;11.516;2023-07-31T12:38:02;25.60;79.30
3818;DHT22;1924;48.078;11.516;2023-07-31T12:40:29;25.60;76.70
3818;DHT22;1924;48.078;11.516;2023-07-31T12:42:56;25.60;82.00
3818;DHT22;1924;48.078;11.516;2023-07-31T12:45:23;25.70;77.60
3818;DHT22;1924;48.078;11.516;2023-07-31T12:47:51;25.50;76.90
3818;DHT22;1924;48.078;11.516;2023-07-31T12:50:18;25.10;78.40
3818;DHT22;1924;48.078;11.516;2023-07-31T12:52:45;24.80;79.60
3818;DHT22;1924;48.078;11.516;2023-07-31T12:55:11;24.80;81.80
3818;DHT22;1924;48.078;11.516;2023-07-31T12:57:39;24.80;77.50
3818;DHT22;1924;48.078;11.516;2023-07-31T13:00:07;24.90;80.70
3818;DHT22;1924;48.078;11.516;2023-07-31T13:02:34;25.20;77.70
3818;DHT22;1924;48.078;11.516;2023-07-31T13:05:02;25.20;76.80
3818;DHT22;1924;48.078;11.516;2023-07-31T13:07:29;25.00;78.30
3818;DHT22;1924;48.078;11.516;2023-07-31T13:09:56;24.70;80.60
3818;DHT22;1924;48.078;11.516;2023-07-31T13:12:22;24.40;77.30
3818;DHT22;1924;48.078;11.516;2023-07-31T13:14:50;24.30;79.60
3818;DHT22;1924;48.078;11.516;2023-07-31T13:17:17;24.30;80.70
3818;DHT22;1924;48.078;11.516;2023-07-31T13:19:44;24.40;80.90
3818;DHT22;1924;48.078;11.516;2023-07-31T13:22:12;24.70;83.20
3818;DHT22;1924;48.078;11.516;2023-07-31T13:24:39;24.60;80.90
3818;DHT22;1924;48.078;11.516;2023-07-31T13:27:06;24.60;83.30
3818;DHT22;1924;48.078;11.516;2023-07-31T13:29:32;24.40;81.80
3818;DHT22;1924;48.078;11.516;2023-07-31T13:31:59;24.40;79.80
3818;DHT22;1924;48.078;11.516;2023-07-31T13:34:26;24.60;80.50
3818;DHT22;1924;48.078;11.516;2023-07-31T13:36:53;24.90;84.20
3818;DHT22;1924;48.078;11.516;2023-07-31T13:39:22;25.20;79.60
3818;DHT22;1924;48.078;11.516;2023-07-31T13:41:48;25.40;80.40
3818;DHT22;1924;48.078;11.516;2023-07-31T13:44:15;25.40;76.70
3818;DHT22;1924;48.078;11.516;2023-07-31T13:46:42;25.50;79.40
3818;DHT22;1924;48.078;11.516;2023-07-31T13:49:09;25.50;76.00
3818;DHT22;1924;48.078;11.516;2023-07-31T13:51:35;25.60;75.50
3818;DHT22;1924;48.078;11.516;2023-07-31T13:54:04;25.60;75.50
3818;DHT22;1924;48.078;11.516;2023-07-31T13:56:33;25.60;74.20
3818;DHT22;1924;48.078;11.516;2023-07-31T13:59:00;25.60;72.70
3818;DHT22;1924;48.078;11.516;2023-07-31T14:01:27;25.40;72.90
3818;DHT22;1924;48.078;11.516;2023-07-31T14:03:54;25.30;74.30
3818;DHT22;1924;48.078;11.516;2023-07-31T14:06:20;25.10;74.20
3818;DHT22;1924;48.078;11.516;2023-07-31T14:08:47;25.00;76.60
3818;DHT22;1924;48.078;11.516;2023-07-31T14:11:14;25.00;76.50
3818;DHT22;1924;48.078;11.516;2023-07-31T14:13:42;25.00;73.60
3818;DHT22;1924;48.078;11.516;2023-07-31T14:16:09;24.90;73.60
3818;DHT22;1924;48.078;11.516;2023-07-31T14:18:35;24.60;76.10
3818;DHT22;1924;48.078;11.516;2023-07-31T14:21:02;24.50;76.00
3818;DHT22;1924;48.078;11.516;2023-07-31T14:23:29;24.40;75.90
3818;DHT22;1924;48.078;11.516;2023-07-31T14:25:56;24.30;76.10
3818;DHT22;1924;48.078;11.516;2023-07-31T14:28:22;24.20;77.60
3818;DHT22;1924;48.078;11.516;2023-07-31T14:30:50;24.10;76.80
3818;DHT22;1924;48.078;11.516;2023-07-31T14:33:17;24.00;77.10
3818;DHT22;1924;48.078;11.516;2023-07-31T14:35:44;23.90;78.80
3818;DHT22;1924;48.078;11.516;2023-07-31T14:38:12;23.90;78.20
3818;DHT22;1924;48.078;11.516;2023-07-31T14:40:39;24.00;78.00
3818;DHT22;1924;48.078;11.516;2023-07-31T14:43:05;24.00;79.80
3818;DHT22;1924;48.078;11.516;2023-07-31T14:45:32;24.10;79.90
3818;DHT22;1924;48.078;11.516;2023-07-31T14:48:00;24.10;77.70
3818;DHT22;1924;48.078;11.516;2023-07-31T14:50:27;24.10;75.60
3818;DHT22;1924;48.078;11.516;2023-07-31T14:52:54;24.20;76.00
3818;DHT22;1924;48.078;11.516;2023-07-31T14:55:20;24.30;78.70
3818;DHT22;1924;48.078;11.516;2023-07-31T14:57:48;24.40;78.40
3818;DHT22;1924;48.078;11.516;2023-07-31T15:00:17;24.30;78.00
3818;DHT22;1924;48.078;11.516;2023-07-31T15:02:44;24.20;77.00
3818;DHT22;1924;48.078;11.516;2023-07-31T15:05:12;24.10;74.50
3818;DHT22;1924;48.078;11.516;2023-07-31T15:07:38;24.00;74.50
3818;DHT22;1924;48.078;11.516;2023-07-31T15:10:06;24.10;75.80
3818;DHT22;1924;48.078;11.516;2023-07-31T15:12:34;24.10;74.40
3818;DHT22;1924;48.078;11.516;2023-07-31T15:15:03;24.10;72.40
3818;DHT22;1924;48.078;11.516;2023-07-31T15:17:30;24.10;74.60
3818;DHT22;1924;48.078;11.516;2023-07-31T15:19:57;24.10;74.90
3818;DHT22;1924;48.078;11.516;2023-07-31T15:22:26;24.00;72.70
3818;DHT22;1924;48.078;11.516;2023-07-31T15:24:52;24.00;73.90
3818;DHT22;1924;48.078;11.516;2023-07-31T15:27:19;23.90;75.50
3818;DHT22;1924;48.078;11.516;2023-07-31T15:29:46;23.80;76.10
3818;DHT22;1924;48.078;11.516;2023-07-31T15:32:12;23.80;78.10
3818;DHT22;1924;48.078;11.516;2023-07-31T15:34:39;23.70;78.30
3818;DHT22;1924;48.078;11.516;2023-07-31T15:37:06;23.60;76.00
3818;DHT22;1924;48.078;11.516;2023-07-31T15:39:34;23.60;78.40
3818;DHT22;1924;48.078;11.516;2023-07-31T15:42:01;23.50;79.60
3818;DHT22;1924;48.078;11.516;2023-07-31T15:44:27;23.50;79.40
3818;DHT22;1924;48.078;11.516;2023-07-31T15:46:54;23.40;77.00
3818;DHT22;1924;48.078;11.516;2023-07-31T15:49:21;23.40;80.50
3818;DHT22;1924;48.078;11.516;2023-07-31T15:51:48;23.30;81.10
3818;DHT22;1924;48.078;11.516;2023-07-31T15:54:14;23.30;81.80
3818;DHT22;1924;48.078;11.516;2023-07-31T15:56:42;23.20;82.30
3818;DHT22;1924;48.078;11.516;2023-07-31T15:59:09;23.20;79.40
3818;DHT22;1924;48.078;11.516;2023-07-31T16:01:36;23.20;78.70
3818;DHT22;1924;48.078;11.516;2023-07-31T16:04:03;23.20;81.90
3818;DHT22;1924;48.078;11.516;2023-07-31T16:06:29;23.20;81.50
3818;DHT22;1924;48.078;11.516;2023-07-31T16:08:56;23.20;82.40
3818;DHT22;1924;48.078;11.516;2023-07-31T16:11:23;23.20;82.40
3818;DHT22;1924;48.078;11.516;2023-07-31T16:13:51;23.10;82.20
3818;DHT22;1924;48.078;11.516;2023-07-31T16:16:18;23.10;81.60
3818;DHT22;1924;48.078;11.516;2023-07-31T16:18:45;23.00;81.50
3818;DHT22;1924;48.078;11.516;2023-07-31T16:21:12;23.00;81.60
3818;DHT22;1924;48.078;11.516;2023-07-31T16:23:38;23.00;84.20
3818;DHT22;1924;48.078;11.516;2023-07-31T16:26:05;23.00;83.60
3818;DHT22;1924;48.078;11.516;2023-07-31T16:28:32;22.90;82.80
3818;DHT22;1924;48.078;11.516;2023-07-31T16:31:00;22.90;83.00
3818;DHT22;1924;48.078;11.516;2023-07-31T16:33:27;22.90;83.50
3818;DHT22;1924;48.078;11.516;2023-07-31T16:35:54;22.80;83.80
3818;DHT22;1924;48.078;11.516;2023-07-31T16:38:20;22.70;85.00
3818;DHT22;1924;48.078;11.516;2023-07-31T16:40:47;22.60;85.00
3818;DHT22;1924;48.078;11.516;2023-07-31T16:43:14;22.60;84.90
3818;DHT22;1924;48.078;11.516;2023-07-31T16:45:41;22.60;86.20
3818;DHT22;1924;48.078;11.516;2023-07-31T16:48:09;22.50;84.60
3818;DHT22;1924;48.078;11.516;2023-07-31T16:50:36;22.50;82.90
3818;DHT22;1924;48.078;11.516;2023-07-31T16:53:03;22.50;86.30
3818;DHT22;1924;48.078;11.516;2023-07-31T16:55:30;22.40;84.20
3818;DHT22;1924;48.078;11.516;2023-07-31T16:57:59;22.40;85.60
3818;DHT22;1924;48.078;11.516;2023-07-31T17:00:27;22.40;83.60
3818;DHT22;1924;48.078;11.516;2023-07-31T17:02:54;22.40;85.00
3818;DHT22;1924;48.078;11.516;2023-07-31T17:05:22;22.30;85.00
3818;DHT22;1924;48.078;11.516;2023-07-31T17:07:49;22.40;87.30
3818;DHT22;1924;48.078;11.516;2023-07-31T17:10:16;22.40;85.80
3818;DHT22;1924;48.078;11.516;2023-07-31T17:12:43;22.30;86.40
3818;DHT22;1924;48.078;11.516;2023-07-31T17:15:10;22.30;88.30
3818;DHT22;1924;48.078;11.516;2023-07-31T17:17:37;22.30;90.20
3818;DHT22;1924;48.078;11.516;2023-07-31T17:20:04;22.30;90.40
3818;DHT22;1924;48.078;11.516;2023-07-31T17:22:33;22.30;90.60
3818;DHT22;1924;48.078;11.516;2023-07-31T17:25:00;22.30;89.40
3818;DHT22;1924;48.078;11.516;2023-07-31T17:27:26;22.30;90.30
3818;DHT22;1924;48.078;11.516;2023-07-31T17:29:55;22.20;90.60
3818;DHT22;1924;48.078;11.516;2023-07-31T17:32:21;22.20;91.00
3818;DHT22;1924;48.078;11.516;2023-07-31T17:34:48;22.20;91.70
3818;DHT22;1924;48.078;11.516;2023-07-31T17:37:15;22.20;91.90
3818;DHT22;1924;48.078;11.516;2023-07-31T17:39:43;22.10;91.90
3818;DHT22;1924;48.078;11.516;2023-07-31T17:42:10;22.10;91.80
3818;DHT22;1924;48.078;11.516;2023-07-31T17:44:36;22.00;91.30
3818;DHT22;1924;48.078;11.516;2023-07-31T17:47:03;22.00;91.80
3818;DHT22;1924;48.078;11.516;2023-07-31T17:49:30;22.00;92.40
3818;DHT22;1924;48.078;11.516;2023-07-31T17:51:57;22.00;92.10
3818;DHT22;1924;48.078;11.516;2023-07-31T17:54:26;21.90;91.40
3818;DHT22;1924;48.078;11.516;2023-07-31T17:56:54;21.90;91.40
3818;DHT22;1924;48.078;11.516;2023-07-31T17:59:21;21.90;91.40
3818;DHT22;1924;48.078;11.516;2023-07-31T18:01:48;21.90;91.10
3818;DHT22;1924;48.078;11.516;2023-07-31T18:04:14;21.90;91.50
3818;DHT22;1924;48.078;11.516;2023-07-31T18:06:41;21.80;90.90
3818;DHT22;1924;48.078;11.516;2023-07-31T18:09:08;21.80;91.80
3818;DHT22;1924;48.078;11.516;2023-07-31T18:11:35;21.80;92.00
3818;DHT22;1924;48.078;11.516;2023-07-31T18:14:03;21.80;91.90
3818;DHT22;1924;48.078;11.516;2023-07-31T18:16:30;21.80;92.20
3818;DHT22;1924;48.078;11.516;2023-07-31T18:18:56;21.70;92.00
3818;DHT22;1924;48.078;11.516;2023-07-31T18:21:25;21.70;91.90
3818;DHT22;1924;48.078;11.516;2023-07-31T18:23:51;21.70;92.50
3818;DHT22;1924;48.078;11.516;2023-07-31T18:26:18;21.70;91.60
3818;DHT22;1924;48.078;11.516;2023-07-31T18:28:45;21.70;91.20
3818;DHT22;1924;48.078;11.516;2023-07-31T18:31:13;21.60;91.40
3818;DHT22;1924;48.078;11.516;2023-07-31T18:33:41;21.60;91.80
3818;DHT22;1924;48.078;11.516;2023-07-31T18:36:08;21.60;91.50
3818;DHT22;1924;48.078;11.516;2023-07-31T18:38:35;21.60;90.60
3818;DHT22;1924;48.078;11.516;2023-07-31T18:41:04;21.60;91.00
3818;DHT22;1924;48.078;11.516;2023-07-31T18:43:31;21.50;91.20
3818;DHT22;1924;48.078;11.516;2023-07-31T18:45:58;21.50;91.30
3818;DHT22;1924;48.078;11.516;2023-07-31T18:48:27;21.50;91.80
3818;DHT22;1924;48.078;11.516;2023-07-31T18:50:56;21.40;91.70
3818;DHT22;1924;48.078;11.516;2023-07-31T18:53:23;21.50;91.70
3818;DHT22;1924;48.078;11.516;2023-07-31T18:55:50;21.40;91.80
3818;DHT22;1924;48.078;11.516;2023-07-31T18:58:17;21.30;91.50
3818;DHT22;1924;48.078;11.516;2023-07-31T19:00:44;21.30;91.60
3818;DHT22;1924;48.078;11.516;2023-07-31T19:03:11;21.20;91.30
3818;DHT22;1924;48.078;11.516;2023-07-31T19:05:39;21.20;91.40
3818;DHT22;1924;48.078;11.516;2023-07-31T19:08:06;21.10;91.50
3818;DHT22;1924;48.078;11.516;2023-07-31T19:10:34;21.10;91.20